createdAt,value
2022-10-08T00:01:04.884Z,17.83
2022-10-08T00:04:11.160Z,18.08
2022-10-08T00:07:13.966Z,17.92
2022-10-08T00:10:16.677Z,17.67
2022-10-08T00:13:19.352Z,18.12
2022-10-08T00:16:24.130Z,19.08
2022-10-08T00:19:27.501Z,19.08
2022-10-08T00:22:30.272Z,18.25
2022-10-08T00:25:37.973Z,18.25
2022-10-08T00:28:43.866Z,17.45
2022-10-08T00:31:48.766Z,17.52
2022-10-08T00:34:51.856Z,17.92
2022-10-08T00:37:54.564Z,19.33
2022-10-08T00:40:58.180Z,19.83
2022-10-08T00:44:03.975Z,18.00
2022-10-08T00:47:16.344Z,18.62
2022-10-08T00:50:39.910Z,18.33
2022-10-08T00:53:44.043Z,18.10
2022-10-08T00:56:52.941Z,17.98
2022-10-08T00:59:56.635Z,18.08
2022-10-08T01:02:59.734Z,17.77
2022-10-08T01:06:23.833Z,17.05
2022-10-08T01:09:35.680Z,17.35
2022-10-08T01:13:06.383Z,18.15
2022-10-08T01:16:34.473Z,18.27
2022-10-08T01:19:56.682Z,18.98
2022-10-08T01:23:21.931Z,18.23
2022-10-08T01:26:57.581Z,22.23
2022-10-08T01:30:09.276Z,19.35
2022-10-08T01:33:18.998Z,20.70
2022-10-08T01:36:25.090Z,19.85
2022-10-08T01:39:33.678Z,20.62
2022-10-08T01:42:40.034Z,18.98
2022-10-08T01:45:49.572Z,18.62
2022-10-08T01:48:56.437Z,19.70
2022-10-08T01:52:10.726Z,19.55
2022-10-08T01:55:37.209Z,18.80
2022-10-08T01:59:04.198Z,17.87
2022-10-08T02:02:22.133Z,18.83
2022-10-08T02:05:29.884Z,19.12
2022-10-08T02:08:32.890Z,19.37
2022-10-08T02:11:36.375Z,18.65
2022-10-08T02:14:43.536Z,18.05
2022-10-08T02:18:09.253Z,18.25
2022-10-08T02:21:24.549Z,18.87
2022-10-08T02:24:33.897Z,19.25
2022-10-08T02:28:12.068Z,17.73
2022-10-08T02:31:45.460Z,18.52
2022-10-08T02:34:57.825Z,17.10
2022-10-08T02:38:08.610Z,18.57
2022-10-08T02:41:12.648Z,18.00
2022-10-08T02:44:26.455Z,17.95
2022-10-08T02:47:32.991Z,18.17
2022-10-08T02:50:41.551Z,18.48
2022-10-08T02:53:46.041Z,17.55
2022-10-08T02:56:55.873Z,19.48
2022-10-08T02:59:59.203Z,17.60
2022-10-08T03:03:13.277Z,18.20
2022-10-08T03:06:18.503Z,16.50
2022-10-08T03:09:24.188Z,17.73
2022-10-08T03:12:27.021Z,18.05
2022-10-08T03:15:33.129Z,18.58
2022-10-08T03:18:37.940Z,17.45
2022-10-08T03:21:43.051Z,18.12
2022-10-08T03:24:45.961Z,17.83
2022-10-08T03:27:51.012Z,19.00
2022-10-08T03:30:53.657Z,17.85
2022-10-08T03:33:57.583Z,17.58
2022-10-08T03:37:00.432Z,18.92
2022-10-08T03:40:03.492Z,17.58
2022-10-08T03:43:06.184Z,18.92
2022-10-08T03:46:10.353Z,18.27
2022-10-08T03:49:13.110Z,18.20
2022-10-08T03:52:15.816Z,19.27
2022-10-08T03:55:18.708Z,19.15
2022-10-08T03:58:21.526Z,18.08
2022-10-08T04:01:25.725Z,19.15
2022-10-08T04:04:29.220Z,19.25
2022-10-08T04:10:38.633Z,19.92
2022-10-08T04:13:41.769Z,18.42
2022-10-08T04:16:44.557Z,19.55
2022-10-08T04:19:47.191Z,19.10
2022-10-08T04:22:50.211Z,20.05
2022-10-08T04:25:54.201Z,19.02
2022-10-08T04:28:57.164Z,21.80
2022-10-08T04:31:59.788Z,25.05
2022-10-08T04:35:02.558Z,21.23
2022-10-08T04:38:05.248Z,19.27
2022-10-08T04:41:16.368Z,18.77
2022-10-08T04:44:19.004Z,20.08
2022-10-08T04:47:21.805Z,19.33
2022-10-08T04:50:27.094Z,20.33
2022-10-08T04:53:30.173Z,18.92
2022-10-08T04:56:35.497Z,20.05
2022-10-08T04:59:53.768Z,19.55
2022-10-08T05:03:01.142Z,19.30
2022-10-08T05:06:04.521Z,19.23
2022-10-08T05:09:07.465Z,20.25
2022-10-08T05:12:10.280Z,20.10
2022-10-08T05:15:12.950Z,20.95
2022-10-08T05:18:15.770Z,21.05
2022-10-08T05:21:23.547Z,20.88
2022-10-08T05:24:27.000Z,20.20
2022-10-08T05:27:29.698Z,20.42
2022-10-08T05:30:32.485Z,21.80
2022-10-08T05:33:38.483Z,22.83
2022-10-08T05:36:41.739Z,20.90
2022-10-08T05:39:45.586Z,20.67
2022-10-08T05:45:51.964Z,19.37
2022-10-08T05:48:56.368Z,19.35
2022-10-08T05:51:59.018Z,19.83
2022-10-08T05:55:01.707Z,21.65
2022-10-08T05:58:04.501Z,19.65
2022-10-08T06:01:12.701Z,20.45
2022-10-08T06:04:15.894Z,18.37
2022-10-08T06:07:18.634Z,20.77
2022-10-08T06:10:21.571Z,18.67
2022-10-08T06:13:24.383Z,19.80
2022-10-08T06:16:29.442Z,19.90
2022-10-08T06:19:34.125Z,19.48
2022-10-08T06:22:37.004Z,20.92
2022-10-08T06:25:39.436Z,20.93
2022-10-08T06:28:42.460Z,20.30
2022-10-08T06:31:46.399Z,20.45
2022-10-08T06:34:49.467Z,19.62
2022-10-08T06:37:52.040Z,20.90
2022-10-08T06:40:57.926Z,21.62
2022-10-08T06:44:01.783Z,21.00
2022-10-08T06:47:04.781Z,20.30
2022-10-08T06:50:08.430Z,20.50
2022-10-08T06:53:11.953Z,19.65
2022-10-08T06:56:18.065Z,19.65
2022-10-08T06:59:20.979Z,19.85
2022-10-08T07:02:23.542Z,19.90
2022-10-08T07:05:26.573Z,19.58
2022-10-08T07:08:29.364Z,19.17
2022-10-08T07:11:34.932Z,20.45
2022-10-08T07:14:37.408Z,17.62
2022-10-08T07:17:40.589Z,19.40
2022-10-08T07:20:43.057Z,20.55
2022-10-08T07:23:46.160Z,18.83
2022-10-08T07:26:48.800Z,18.45
2022-10-08T07:32:53.977Z,18.85
2022-10-08T07:39:12.173Z,18.20
2022-10-08T07:42:15.183Z,17.12
2022-10-08T07:45:17.876Z,16.20
2022-10-08T07:48:21.045Z,16.12
2022-10-08T07:54:26.342Z,13.88
2022-10-08T07:57:28.829Z,14.43
2022-10-08T08:00:31.757Z,14.63
2022-10-08T08:03:35.223Z,13.75
2022-10-08T08:06:44.275Z,14.35
2022-10-08T08:09:47.472Z,13.02
2022-10-08T08:12:50.286Z,13.75
2022-10-08T08:16:01.373Z,13.82
2022-10-08T08:19:04.488Z,13.30
2022-10-08T08:22:07.336Z,13.52
2022-10-08T08:25:10.002Z,13.30
2022-10-08T08:28:12.778Z,13.62
2022-10-08T08:31:28.228Z,12.57
2022-10-08T08:34:33.985Z,13.00
2022-10-08T08:37:36.653Z,12.57
2022-10-08T08:40:39.353Z,12.57
2022-10-08T08:43:42.057Z,12.57
2022-10-08T08:46:54.707Z,12.13
2022-10-08T08:50:03.145Z,12.68
2022-10-08T08:53:09.864Z,12.23
2022-10-08T08:56:15.972Z,12.52
2022-10-08T08:59:31.875Z,11.43
2022-10-08T09:02:40.541Z,11.68
2022-10-08T09:05:46.950Z,11.57
2022-10-08T09:09:20.468Z,12.27
2022-10-08T09:12:32.669Z,11.52
2022-10-08T09:15:38.243Z,11.45
2022-10-08T09:18:51.835Z,12.60
2022-10-08T09:21:55.821Z,12.65
2022-10-08T09:25:01.448Z,12.30
2022-10-08T09:28:04.828Z,12.43
2022-10-08T09:31:28.259Z,12.30
2022-10-08T09:34:31.336Z,11.07
2022-10-08T09:37:36.409Z,10.98
2022-10-08T09:40:39.122Z,12.35
2022-10-08T09:43:41.960Z,11.38
2022-10-08T09:46:46.037Z,12.35
2022-10-08T09:50:21.818Z,11.27
2022-10-08T09:53:29.167Z,11.10
2022-10-08T09:56:31.943Z,11.12
2022-10-08T09:59:41.813Z,9.63
2022-10-08T10:02:44.740Z,9.55
2022-10-08T10:05:52.431Z,9.43
2022-10-08T10:09:32.368Z,8.55
2022-10-08T10:12:42.323Z,9.85
2022-10-08T10:15:50.738Z,9.50
2022-10-08T10:19:08.790Z,8.90
2022-10-08T10:22:21.846Z,9.48
2022-10-08T10:25:50.498Z,8.48
2022-10-08T10:28:57.969Z,7.62
2022-10-08T10:32:13.430Z,7.60
2022-10-08T10:35:29.378Z,8.32
2022-10-08T10:38:42.806Z,7.85
2022-10-08T10:41:53.435Z,7.50
2022-10-08T10:45:01.593Z,7.40
2022-10-08T10:48:05.384Z,8.95
2022-10-08T10:51:31.420Z,7.65
2022-10-08T10:54:39.980Z,8.35
2022-10-08T10:58:01.318Z,8.35
2022-10-08T11:01:15.752Z,7.62
2022-10-08T11:04:36.775Z,11.00
2022-10-08T11:07:58.982Z,15.98
2022-10-08T11:11:15.314Z,7.10
2022-10-08T11:14:51.684Z,6.30
2022-10-08T11:18:32.354Z,10.57
2022-10-08T11:22:03.744Z,7.32
2022-10-08T11:26:02.116Z,7.73
2022-10-08T11:29:17.117Z,7.37
2022-10-08T11:32:20.670Z,6.78
2022-10-08T11:35:42.647Z,7.40
2022-10-08T11:38:48.869Z,6.32
2022-10-08T11:41:55.580Z,6.07
2022-10-08T11:45:38.251Z,6.22
2022-10-08T11:48:41.489Z,6.00
2022-10-08T11:51:46.607Z,5.82
2022-10-08T11:54:55.194Z,5.43
2022-10-08T11:58:09.403Z,5.45
2022-10-08T12:01:12.092Z,5.55
2022-10-08T12:04:27.416Z,6.25
2022-10-08T12:07:36.389Z,5.65
2022-10-08T12:10:41.220Z,5.82
2022-10-08T12:13:43.844Z,6.15
2022-10-08T12:17:05.765Z,11.05
2022-10-08T12:20:21.984Z,5.30
2022-10-08T12:23:24.856Z,6.30
2022-10-08T12:26:27.291Z,5.65
2022-10-08T12:29:54.950Z,6.00
2022-10-08T12:32:57.700Z,5.90
2022-10-08T12:36:12.819Z,5.95
2022-10-08T12:39:18.230Z,6.20
2022-10-08T12:42:27.910Z,5.72
2022-10-08T12:45:40.036Z,5.07
2022-10-08T12:49:10.523Z,5.97
2022-10-08T12:52:15.864Z,5.45
2022-10-08T12:55:23.027Z,6.43
2022-10-08T12:58:33.545Z,6.62
2022-10-08T13:01:36.823Z,6.32
2022-10-08T13:04:46.530Z,6.72
2022-10-08T13:07:50.002Z,6.12
2022-10-08T13:10:52.719Z,6.03
2022-10-08T13:13:56.180Z,6.37
2022-10-08T13:16:59.410Z,6.57
2022-10-08T13:20:18.534Z,6.35
2022-10-08T13:23:25.640Z,6.12
2022-10-08T13:26:49.863Z,6.18
2022-10-08T13:29:52.945Z,7.40
2022-10-08T13:33:11.563Z,6.10
2022-10-08T13:36:21.614Z,6.57
2022-10-08T13:39:31.605Z,5.90
2022-10-08T13:42:39.490Z,5.95
2022-10-08T13:45:42.613Z,6.15
2022-10-08T13:51:49.313Z,6.47
2022-10-08T13:54:58.829Z,6.43
2022-10-08T13:58:04.466Z,6.43
2022-10-08T14:01:07.205Z,6.47
2022-10-08T14:04:10.300Z,10.23
2022-10-08T14:07:27.687Z,6.28
2022-10-08T14:10:31.103Z,7.20
2022-10-08T14:13:33.567Z,7.12
2022-10-08T14:16:36.565Z,6.65
2022-10-08T14:19:39.248Z,7.05
2022-10-08T14:22:43.571Z,7.62
2022-10-08T14:25:46.645Z,6.53
2022-10-08T14:28:49.615Z,6.68
2022-10-08T14:31:52.159Z,6.53
2022-10-08T14:34:55.366Z,6.80
2022-10-08T14:37:58.009Z,6.47
2022-10-08T14:41:01.046Z,6.55
2022-10-08T14:44:03.849Z,6.93
2022-10-08T14:47:06.801Z,7.18
2022-10-08T14:50:09.939Z,6.75
2022-10-08T14:53:14.002Z,7.70
2022-10-08T14:56:16.583Z,7.75
2022-10-08T14:59:19.786Z,7.30
2022-10-08T15:05:24.974Z,7.18
2022-10-08T15:08:28.250Z,6.45
2022-10-08T15:11:31.981Z,7.35
2022-10-08T15:14:37.945Z,7.43
2022-10-08T15:17:41.810Z,7.45
2022-10-08T15:23:47.588Z,7.62
2022-10-08T15:26:50.008Z,8.23
2022-10-08T15:29:53.080Z,7.90
2022-10-08T15:32:55.576Z,7.03
2022-10-08T15:35:58.573Z,8.60
2022-10-08T15:39:02.219Z,8.20
2022-10-08T15:42:05.454Z,7.93
2022-10-08T15:45:08.209Z,9.70
2022-10-08T15:48:13.066Z,10.00
2022-10-08T15:51:15.587Z,9.52
2022-10-08T15:57:20.938Z,9.02
2022-10-08T16:00:24.119Z,10.20
2022-10-08T16:06:34.283Z,9.37
2022-10-08T16:09:37.333Z,8.70
2022-10-08T16:12:39.948Z,9.90
2022-10-08T16:15:48.973Z,9.35
2022-10-08T16:18:58.153Z,9.63
2022-10-08T16:22:02.934Z,10.57
2022-10-08T16:25:10.226Z,14.82
2022-10-08T16:28:15.086Z,11.35
2022-10-08T16:31:19.441Z,11.85
2022-10-08T16:34:24.058Z,12.05
2022-10-08T16:37:26.769Z,11.80
2022-10-08T16:40:29.548Z,11.30
2022-10-08T16:43:33.069Z,11.57
2022-10-08T16:46:40.635Z,12.48
2022-10-08T16:49:49.742Z,12.70
2022-10-08T16:53:07.660Z,13.40
2022-10-08T16:56:11.437Z,13.00
2022-10-08T17:02:41.039Z,12.77
2022-10-08T17:08:47.445Z,12.05
2022-10-08T17:11:50.336Z,12.52
2022-10-08T17:15:11.362Z,12.60
2022-10-08T17:18:14.190Z,14.43
2022-10-08T17:24:50.835Z,13.73
2022-10-08T17:28:20.566Z,13.93
2022-10-08T17:31:31.863Z,13.38
2022-10-08T17:34:34.723Z,13.85
2022-10-08T17:40:40.014Z,13.88
2022-10-08T17:43:43.660Z,13.05
2022-10-08T17:46:48.020Z,13.88
2022-10-08T17:49:50.781Z,13.50
2022-10-08T17:52:53.577Z,14.30
2022-10-08T17:56:05.194Z,14.38
2022-10-08T17:59:08.839Z,13.70
2022-10-08T18:02:11.621Z,13.68
2022-10-08T18:08:16.976Z,13.95
2022-10-08T18:11:20.451Z,14.75
2022-10-08T18:14:23.244Z,13.57
2022-10-08T18:17:26.387Z,14.02
2022-10-08T18:20:28.818Z,14.35
2022-10-08T18:23:33.546Z,13.82
2022-10-08T18:26:37.076Z,14.63
2022-10-08T18:29:40.484Z,15.05
2022-10-08T18:32:42.985Z,14.30
2022-10-08T18:35:46.227Z,13.32
2022-10-08T18:39:00.422Z,13.57
2022-10-08T18:42:03.606Z,22.30
2022-10-08T18:45:06.552Z,17.10
2022-10-08T18:48:09.713Z,14.95
2022-10-08T18:51:14.601Z,14.68
2022-10-08T18:54:17.852Z,14.70
2022-10-08T18:57:20.276Z,14.55
2022-10-08T19:00:26.488Z,13.65
2022-10-08T19:03:28.933Z,14.82
2022-10-08T19:06:36.529Z,14.23
2022-10-08T19:09:39.107Z,16.02
2022-10-08T19:15:44.786Z,15.07
2022-10-08T19:19:04.538Z,15.48
2022-10-08T19:22:07.124Z,15.93
2022-10-08T19:25:10.389Z,14.82
2022-10-08T19:28:13.126Z,15.57
2022-10-08T19:31:40.149Z,15.93
2022-10-08T19:34:43.003Z,14.87
2022-10-08T19:37:47.732Z,16.15
2022-10-08T19:40:50.297Z,17.83
2022-10-08T19:46:56.235Z,16.50
2022-10-08T19:49:59.962Z,16.83
2022-10-08T19:53:04.194Z,16.37
2022-10-08T19:56:08.912Z,16.73
2022-10-08T19:59:12.345Z,15.93
2022-10-08T20:02:15.309Z,17.17
2022-10-08T20:05:18.103Z,18.20
2022-10-08T20:08:20.957Z,19.23
2022-10-08T20:11:24.240Z,17.30
2022-10-08T20:14:27.579Z,17.27
2022-10-08T20:17:30.674Z,17.23
2022-10-08T20:20:33.894Z,17.10
2022-10-08T20:23:38.218Z,17.02
2022-10-08T20:26:43.017Z,18.02
2022-10-08T20:29:46.502Z,18.80
2022-10-08T20:32:49.526Z,19.85
2022-10-08T20:35:52.507Z,18.37
2022-10-08T20:38:56.260Z,18.80
2022-10-08T20:42:03.294Z,17.65
2022-10-08T20:45:07.426Z,18.65
2022-10-08T20:48:10.201Z,18.25
2022-10-08T20:51:18.499Z,19.70
2022-10-08T20:54:21.281Z,18.48
2022-10-08T20:57:23.917Z,18.67
2022-10-08T21:00:26.709Z,17.90
2022-10-08T21:03:30.464Z,18.83
2022-10-08T21:06:41.537Z,18.08
2022-10-08T21:09:44.212Z,16.80
2022-10-08T21:12:47.354Z,17.70
2022-10-08T21:15:59.824Z,17.90
2022-10-08T21:19:05.574Z,19.05
2022-10-08T21:22:10.689Z,18.15
2022-10-08T21:25:13.641Z,18.10
2022-10-08T21:28:16.412Z,17.12
2022-10-08T21:31:21.143Z,18.60
2022-10-08T21:34:24.096Z,17.30
2022-10-08T21:37:26.811Z,17.70
2022-10-08T21:40:29.488Z,16.77
2022-10-08T21:43:32.384Z,16.37
2022-10-08T21:46:37.487Z,18.17
2022-10-08T21:49:40.199Z,17.48
2022-10-08T21:52:42.893Z,16.05
2022-10-08T21:55:54.502Z,16.77
2022-10-08T21:59:00.392Z,17.15
2022-10-08T22:02:03.417Z,17.23
2022-10-08T22:05:06.602Z,17.02
2022-10-08T22:08:09.319Z,17.00
2022-10-08T22:11:12.615Z,17.33
2022-10-08T22:14:15.952Z,17.00
2022-10-08T22:17:18.852Z,16.50
2022-10-08T22:20:21.391Z,17.58
2022-10-08T22:23:24.379Z,17.92
2022-10-08T22:26:30.189Z,17.70
2022-10-08T22:29:34.271Z,17.45
2022-10-08T22:32:36.785Z,18.17
2022-10-08T22:35:39.845Z,19.00
2022-10-08T22:38:58.438Z,18.17
2022-10-08T22:42:01.606Z,18.95
2022-10-08T22:45:04.357Z,19.52
2022-10-08T22:51:21.770Z,19.17
2022-10-08T22:54:24.698Z,19.25
2022-10-08T22:57:27.298Z,18.35
2022-10-08T23:00:30.214Z,18.08
2022-10-08T23:03:33.330Z,19.02
2022-10-08T23:06:36.731Z,17.67
2022-10-08T23:09:58.060Z,18.05
2022-10-08T23:16:35.687Z,17.90
2022-10-08T23:19:39.264Z,17.90
2022-10-08T23:22:41.718Z,18.42
2022-10-08T23:25:59.287Z,18.45
2022-10-08T23:29:02.504Z,19.00
2022-10-08T23:32:08.041Z,18.70
2022-10-08T23:35:10.621Z,17.70
2022-10-08T23:38:14.296Z,18.23
2022-10-08T23:50:26.965Z,20.42
2022-10-08T23:53:29.922Z,20.65
2022-10-08T23:56:33.060Z,20.40
2022-10-08T23:59:35.499Z,21.50
